sensor_id;sensor_type;location;lat;lon;timestamp;temperature;humidity
7666;DHT22;3875;46.562;4.898;2023-05-08T00:00:20;16.30;93.70
7666;DHT22;3875;46.562;4.898;2023-05-08T00:02:45;16.20;93.90
7666;DHT22;3875;46.562;4.898;2023-05-08T00:05:11;16.20;93.90
7666;DHT22;3875;46.562;4.898;2023-05-08T00:07:37;16.10;94.10
7666;DHT22;3875;46.562;4.898;2023-05-08T00:10:03;16.00;94.30
7666;DHT22;3875;46.562;4.898;2023-05-08T00:12:29;16.00;94.60
7666;DHT22;3875;46.562;4.898;2023-05-08T00:14:55;16.00;94.70
7666;DHT22;3875;46.562;4.898;2023-05-08T00:17:21;15.90;95.10
7666;DHT22;3875;46.562;4.898;2023-05-08T00:19:47;15.70;96.00
7666;DHT22;3875;46.562;4.898;2023-05-08T00:22:12;15.70;96.50
7666;DHT22;3875;46.562;4.898;2023-05-08T00:24:38;15.60;97.00
7666;DHT22;3875;46.562;4.898;2023-05-08T00:27:04;15.50;97.70
7666;DHT22;3875;46.562;4.898;2023-05-08T00:29:29;15.50;97.80
7666;DHT22;3875;46.562;4.898;2023-05-08T00:31:55;15.50;98.10
7666;DHT22;3875;46.562;4.898;2023-05-08T00:34:21;15.50;98.40
7666;DHT22;3875;46.562;4.898;2023-05-08T00:36:46;15.50;98.30
7666;DHT22;3875;46.562;4.898;2023-05-08T00:39:12;15.40;98.50
7666;DHT22;3875;46.562;4.898;2023-05-08T00:41:38;15.50;98.30
7666;DHT22;3875;46.562;4.898;2023-05-08T00:44:03;15.50;98.40
7666;DHT22;3875;46.562;4.898;2023-05-08T00:46:29;15.40;98.60
7666;DHT22;3875;46.562;4.898;2023-05-08T00:48:56;15.40;98.60
7666;DHT22;3875;46.562;4.898;2023-05-08T00:51:21;15.40;98.60
7666;DHT22;3875;46.562;4.898;2023-05-08T00:53:48;15.50;98.60
7666;DHT22;3875;46.562;4.898;2023-05-08T00:56:14;15.50;98.60
7666;DHT22;3875;46.562;4.898;2023-05-08T00:58:41;15.40;98.60
7666;DHT22;3875;46.562;4.898;2023-05-08T01:01:07;15.30;98.60
7666;DHT22;3875;46.562;4.898;2023-05-08T01:03:34;15.30;98.60
7666;DHT22;3875;46.562;4.898;2023-05-08T01:06:04;15.30;98.60
7666;DHT22;3875;46.562;4.898;2023-05-08T01:08:31;15.30;98.60
7666;DHT22;3875;46.562;4.898;2023-05-08T01:11:30;15.20;98.60
7666;DHT22;3875;46.562;4.898;2023-05-08T01:14:06;15.20;98.60
7666;DHT22;3875;46.562;4.898;2023-05-08T01:22:31;15.30;98.60
7666;DHT22;3875;46.562;4.898;2023-05-08T01:33:49;15.00;98.60
7666;DHT22;3875;46.562;4.898;2023-05-08T01:41:36;15.00;98.60
7666;DHT22;3875;46.562;4.898;2023-05-08T01:44:12;15.10;98.60
7666;DHT22;3875;46.562;4.898;2023-05-08T01:46:38;15.00;98.60
7666;DHT22;3875;46.562;4.898;2023-05-08T01:49:33;14.90;98.60
7666;DHT22;3875;46.562;4.898;2023-05-08T01:52:08;14.90;98.60
7666;DHT22;3875;46.562;4.898;2023-05-08T01:57:50;14.80;98.60
7666;DHT22;3875;46.562;4.898;2023-05-08T02:00:20;14.80;98.60
7666;DHT22;3875;46.562;4.898;2023-05-08T02:02:47;14.70;98.60
7666;DHT22;3875;46.562;4.898;2023-05-08T02:05:14;14.70;98.60
7666;DHT22;3875;46.562;4.898;2023-05-08T02:07:41;14.80;98.60
7666;DHT22;3875;46.562;4.898;2023-05-08T02:10:10;15.00;98.60
7666;DHT22;3875;46.562;4.898;2023-05-08T02:12:37;15.10;98.60
7666;DHT22;3875;46.562;4.898;2023-05-08T02:15:04;15.10;98.60
7666;DHT22;3875;46.562;4.898;2023-05-08T02:17:31;15.20;98.60
7666;DHT22;3875;46.562;4.898;2023-05-08T02:19:59;15.20;98.60
7666;DHT22;3875;46.562;4.898;2023-05-08T02:22:29;15.10;98.60
7666;DHT22;3875;46.562;4.898;2023-05-08T02:24:56;15.00;98.60
7666;DHT22;3875;46.562;4.898;2023-05-08T02:27:26;15.00;98.60
7666;DHT22;3875;46.562;4.898;2023-05-08T02:29:54;15.00;98.60
7666;DHT22;3875;46.562;4.898;2023-05-08T02:32:21;14.90;98.60
7666;DHT22;3875;46.562;4.898;2023-05-08T02:34:48;14.80;98.60
7666;DHT22;3875;46.562;4.898;2023-05-08T02:37:15;14.70;98.60
7666;DHT22;3875;46.562;4.898;2023-05-08T02:39:43;14.70;98.60
7666;DHT22;3875;46.562;4.898;2023-05-08T02:42:10;14.70;98.60
7666;DHT22;3875;46.562;4.898;2023-05-08T02:44:36;14.60;98.60
7666;DHT22;3875;46.562;4.898;2023-05-08T02:47:17;14.60;98.60
7666;DHT22;3875;46.562;4.898;2023-05-08T02:52:28;14.50;98.60
7666;DHT22;3875;46.562;4.898;2023-05-08T02:55:00;14.50;98.60
7666;DHT22;3875;46.562;4.898;2023-05-08T02:57:41;14.60;98.60
7666;DHT22;3875;46.562;4.898;2023-05-08T03:00:15;14.60;98.60
7666;DHT22;3875;46.562;4.898;2023-05-08T03:02:53;14.60;98.60
7666;DHT22;3875;46.562;4.898;2023-05-08T03:05:34;14.50;98.60
7666;DHT22;3875;46.562;4.898;2023-05-08T03:08:13;14.50;98.60
7666;DHT22;3875;46.562;4.898;2023-05-08T03:10:42;14.40;98.60
7666;DHT22;3875;46.562;4.898;2023-05-08T03:13:10;14.50;98.60
7666;DHT22;3875;46.562;4.898;2023-05-08T03:15:59;14.50;98.60
7666;DHT22;3875;46.562;4.898;2023-05-08T03:18:49;14.40;98.60
7666;DHT22;3875;46.562;4.898;2023-05-08T03:21:18;14.30;98.60
7666;DHT22;3875;46.562;4.898;2023-05-08T03:23:47;14.30;98.60
7666;DHT22;3875;46.562;4.898;2023-05-08T03:26:16;14.30;98.60
7666;DHT22;3875;46.562;4.898;2023-05-08T03:28:48;14.30;98.60
7666;DHT22;3875;46.562;4.898;2023-05-08T03:31:16;14.40;98.60
7666;DHT22;3875;46.562;4.898;2023-05-08T03:33:46;14.30;98.60
7666;DHT22;3875;46.562;4.898;2023-05-08T03:36:12;14.30;98.60
7666;DHT22;3875;46.562;4.898;2023-05-08T03:38:38;14.30;98.60
7666;DHT22;3875;46.562;4.898;2023-05-08T03:41:05;14.20;98.60
7666;DHT22;3875;46.562;4.898;2023-05-08T03:43:31;14.20;98.60
7666;DHT22;3875;46.562;4.898;2023-05-08T03:45:57;14.20;98.60
7666;DHT22;3875;46.562;4.898;2023-05-08T03:48:23;14.20;98.60
7666;DHT22;3875;46.562;4.898;2023-05-08T03:50:50;14.20;98.60
7666;DHT22;3875;46.562;4.898;2023-05-08T03:53:16;14.20;98.60
7666;DHT22;3875;46.562;4.898;2023-05-08T03:55:42;14.10;98.60
7666;DHT22;3875;46.562;4.898;2023-05-08T03:58:25;14.10;98.60
7666;DHT22;3875;46.562;4.898;2023-05-08T04:01:12;14.10;98.60
7666;DHT22;3875;46.562;4.898;2023-05-08T04:09:33;14.00;98.60
7666;DHT22;3875;46.562;4.898;2023-05-08T04:12:20;14.00;98.60
7666;DHT22;3875;46.562;4.898;2023-05-08T04:14:55;14.00;98.60
7666;DHT22;3875;46.562;4.898;2023-05-08T04:17:52;14.00;98.60
7666;DHT22;3875;46.562;4.898;2023-05-08T04:20:19;14.10;98.60
7666;DHT22;3875;46.562;4.898;2023-05-08T04:22:46;14.10;98.60
7666;DHT22;3875;46.562;4.898;2023-05-08T04:25:15;14.10;98.60
7666;DHT22;3875;46.562;4.898;2023-05-08T04:27:43;14.10;98.60
7666;DHT22;3875;46.562;4.898;2023-05-08T04:30:09;14.20;98.60
7666;DHT22;3875;46.562;4.898;2023-05-08T04:32:36;14.30;98.60
7666;DHT22;3875;46.562;4.898;2023-05-08T04:35:03;14.30;98.60
7666;DHT22;3875;46.562;4.898;2023-05-08T04:37:29;14.50;98.60
7666;DHT22;3875;46.562;4.898;2023-05-08T04:39:58;14.50;98.60
7666;DHT22;3875;46.562;4.898;2023-05-08T04:42:25;14.50;98.60
7666;DHT22;3875;46.562;4.898;2023-05-08T04:44:51;14.60;98.60
7666;DHT22;3875;46.562;4.898;2023-05-08T04:47:17;14.70;98.60
7666;DHT22;3875;46.562;4.898;2023-05-08T04:49:43;14.70;98.60
7666;DHT22;3875;46.562;4.898;2023-05-08T04:52:08;14.70;98.60
7666;DHT22;3875;46.562;4.898;2023-05-08T04:54:34;14.60;98.60
7666;DHT22;3875;46.562;4.898;2023-05-08T04:57:00;14.60;98.60
7666;DHT22;3875;46.562;4.898;2023-05-08T04:59:26;14.60;98.60
7666;DHT22;3875;46.562;4.898;2023-05-08T05:01:52;14.80;98.60
7666;DHT22;3875;46.562;4.898;2023-05-08T05:04:18;14.80;98.60
7666;DHT22;3875;46.562;4.898;2023-05-08T05:06:43;14.80;98.60
7666;DHT22;3875;46.562;4.898;2023-05-08T05:09:09;14.90;98.60
7666;DHT22;3875;46.562;4.898;2023-05-08T05:11:36;15.00;98.60
7666;DHT22;3875;46.562;4.898;2023-05-08T05:14:01;15.20;98.60
7666;DHT22;3875;46.562;4.898;2023-05-08T05:16:27;15.30;98.40
7666;DHT22;3875;46.562;4.898;2023-05-08T05:18:53;15.30;98.20
7666;DHT22;3875;46.562;4.898;2023-05-08T05:21:18;15.20;98.30
7666;DHT22;3875;46.562;4.898;2023-05-08T05:23:44;15.20;98.30
7666;DHT22;3875;46.562;4.898;2023-05-08T05:26:10;15.10;98.50
7666;DHT22;3875;46.562;4.898;2023-05-08T05:28:36;15.10;98.50
7666;DHT22;3875;46.562;4.898;2023-05-08T05:31:02;15.00;98.60
7666;DHT22;3875;46.562;4.898;2023-05-08T05:33:28;15.00;98.60
7666;DHT22;3875;46.562;4.898;2023-05-08T05:35:53;14.90;98.60
7666;DHT22;3875;46.562;4.898;2023-05-08T05:38:19;14.80;98.60
7666;DHT22;3875;46.562;4.898;2023-05-08T05:40:44;14.90;98.60
7666;DHT22;3875;46.562;4.898;2023-05-08T05:43:11;15.00;98.60
7666;DHT22;3875;46.562;4.898;2023-05-08T05:45:37;15.10;98.60
7666;DHT22;3875;46.562;4.898;2023-05-08T05:48:03;15.40;98.60
7666;DHT22;3875;46.562;4.898;2023-05-08T05:50:29;15.50;98.60
7666;DHT22;3875;46.562;4.898;2023-05-08T05:52:55;15.60;98.60
7666;DHT22;3875;46.562;4.898;2023-05-08T05:55:20;15.80;98.60
7666;DHT22;3875;46.562;4.898;2023-05-08T05:57:47;15.90;98.30
7666;DHT22;3875;46.562;4.898;2023-05-08T06:00:13;16.00;97.60
7666;DHT22;3875;46.562;4.898;2023-05-08T06:02:39;15.80;97.40
7666;DHT22;3875;46.562;4.898;2023-05-08T06:05:06;15.60;98.10
7666;DHT22;3875;46.562;4.898;2023-05-08T06:07:32;15.50;98.30
7666;DHT22;3875;46.562;4.898;2023-05-08T06:09:58;15.40;98.60
7666;DHT22;3875;46.562;4.898;2023-05-08T06:12:24;15.40;98.60
7666;DHT22;3875;46.562;4.898;2023-05-08T06:14:51;15.50;98.60
7666;DHT22;3875;46.562;4.898;2023-05-08T06:17:16;15.40;98.60
7666;DHT22;3875;46.562;4.898;2023-05-08T06:19:43;15.40;98.60
7666;DHT22;3875;46.562;4.898;2023-05-08T06:22:09;15.40;98.60
7666;DHT22;3875;46.562;4.898;2023-05-08T06:24:35;15.30;98.60
7666;DHT22;3875;46.562;4.898;2023-05-08T06:27:01;15.40;98.60
7666;DHT22;3875;46.562;4.898;2023-05-08T06:29:26;15.40;98.60
7666;DHT22;3875;46.562;4.898;2023-05-08T06:31:52;15.40;98.60
7666;DHT22;3875;46.562;4.898;2023-05-08T06:34:18;15.40;98.50
7666;DHT22;3875;46.562;4.898;2023-05-08T06:36:43;15.40;98.60
7666;DHT22;3875;46.562;4.898;2023-05-08T06:39:09;15.60;98.60
7666;DHT22;3875;46.562;4.898;2023-05-08T06:41:35;15.60;98.60
7666;DHT22;3875;46.562;4.898;2023-05-08T06:44:01;15.70;98.30
7666;DHT22;3875;46.562;4.898;2023-05-08T06:46:27;15.60;98.10
7666;DHT22;3875;46.562;4.898;2023-05-08T06:48:54;15.60;98.40
7666;DHT22;3875;46.562;4.898;2023-05-08T06:51:19;15.60;98.10
7666;DHT22;3875;46.562;4.898;2023-05-08T06:53:47;15.80;97.90
7666;DHT22;3875;46.562;4.898;2023-05-08T06:56:13;15.70;97.60
7666;DHT22;3875;46.562;4.898;2023-05-08T06:58:38;15.70;97.50
7666;DHT22;3875;46.562;4.898;2023-05-08T07:01:04;15.70;97.50
7666;DHT22;3875;46.562;4.898;2023-05-08T07:03:30;15.70;97.80
7666;DHT22;3875;46.562;4.898;2023-05-08T07:05:56;15.70;97.90
7666;DHT22;3875;46.562;4.898;2023-05-08T07:08:21;15.90;97.80
7666;DHT22;3875;46.562;4.898;2023-05-08T07:10:47;16.10;97.20
7666;DHT22;3875;46.562;4.898;2023-05-08T07:13:13;16.10;96.70
7666;DHT22;3875;46.562;4.898;2023-05-08T07:15:38;16.20;96.70
7666;DHT22;3875;46.562;4.898;2023-05-08T07:18:04;16.30;96.30
7666;DHT22;3875;46.562;4.898;2023-05-08T07:20:30;16.30;96.20
7666;DHT22;3875;46.562;4.898;2023-05-08T07:22:56;16.40;96.30
7666;DHT22;3875;46.562;4.898;2023-05-08T07:25:22;16.30;95.80
7666;DHT22;3875;46.562;4.898;2023-05-08T07:27:47;16.40;96.00
7666;DHT22;3875;46.562;4.898;2023-05-08T07:30:13;16.60;96.10
7666;DHT22;3875;46.562;4.898;2023-05-08T07:32:39;16.70;95.70
7666;DHT22;3875;46.562;4.898;2023-05-08T07:35:05;16.60;95.10
7666;DHT22;3875;46.562;4.898;2023-05-08T07:37:33;16.60;95.30
7666;DHT22;3875;46.562;4.898;2023-05-08T07:39:59;16.60;95.60
7666;DHT22;3875;46.562;4.898;2023-05-08T07:42:24;16.80;95.70
7666;DHT22;3875;46.562;4.898;2023-05-08T07:44:50;17.00;95.40
7666;DHT22;3875;46.562;4.898;2023-05-08T07:47:16;17.20;95.00
7666;DHT22;3875;46.562;4.898;2023-05-08T07:49:42;17.40;94.40
7666;DHT22;3875;46.562;4.898;2023-05-08T07:52:08;17.40;93.70
7666;DHT22;3875;46.562;4.898;2023-05-08T07:54:33;17.50;93.80
7666;DHT22;3875;46.562;4.898;2023-05-08T07:56:59;17.80;94.00
7666;DHT22;3875;46.562;4.898;2023-05-08T07:59:25;18.00;93.20
7666;DHT22;3875;46.562;4.898;2023-05-08T08:01:50;18.60;91.10
7666;DHT22;3875;46.562;4.898;2023-05-08T08:04:16;18.70;90.80
7666;DHT22;3875;46.562;4.898;2023-05-08T08:06:42;18.90;90.70
7666;DHT22;3875;46.562;4.898;2023-05-08T08:09:08;19.10;90.40
7666;DHT22;3875;46.562;4.898;2023-05-08T08:11:33;19.50;91.00
7666;DHT22;3875;46.562;4.898;2023-05-08T08:13:59;20.10;89.50
7666;DHT22;3875;46.562;4.898;2023-05-08T08:16:25;20.30;86.70
7666;DHT22;3875;46.562;4.898;2023-05-08T08:18:50;20.50;86.70
7666;DHT22;3875;46.562;4.898;2023-05-08T08:21:17;20.40;85.90
7666;DHT22;3875;46.562;4.898;2023-05-08T08:23:43;20.20;85.00
7666;DHT22;3875;46.562;4.898;2023-05-08T08:26:09;20.00;85.90
7666;DHT22;3875;46.562;4.898;2023-05-08T08:28:34;19.90;85.70
7666;DHT22;3875;46.562;4.898;2023-05-08T08:31:00;19.80;85.70
7666;DHT22;3875;46.562;4.898;2023-05-08T08:33:29;19.70;86.20
7666;DHT22;3875;46.562;4.898;2023-05-08T08:35:55;19.80;87.10
7666;DHT22;3875;46.562;4.898;2023-05-08T08:38:21;19.90;86.50
7666;DHT22;3875;46.562;4.898;2023-05-08T08:40:46;20.00;84.80
7666;DHT22;3875;46.562;4.898;2023-05-08T08:43:12;20.10;84.00
7666;DHT22;3875;46.562;4.898;2023-05-08T08:45:38;20.20;82.70
7666;DHT22;3875;46.562;4.898;2023-05-08T08:48:05;20.10;82.10
7666;DHT22;3875;46.562;4.898;2023-05-08T08:50:34;20.00;82.80
7666;DHT22;3875;46.562;4.898;2023-05-08T08:53:31;19.90;83.30
7666;DHT22;3875;46.562;4.898;2023-05-08T08:55:57;19.90;83.20
7666;DHT22;3875;46.562;4.898;2023-05-08T08:58:31;19.80;83.40
7666;DHT22;3875;46.562;4.898;2023-05-08T09:00:59;19.80;83.80
7666;DHT22;3875;46.562;4.898;2023-05-08T09:03:32;20.00;84.00
7666;DHT22;3875;46.562;4.898;2023-05-08T09:06:01;20.10;84.40
7666;DHT22;3875;46.562;4.898;2023-05-08T09:08:27;20.30;84.20
7666;DHT22;3875;46.562;4.898;2023-05-08T09:10:54;20.60;81.60
7666;DHT22;3875;46.562;4.898;2023-05-08T09:13:21;20.30;82.40
7666;DHT22;3875;46.562;4.898;2023-05-08T09:15:47;20.10;83.00
7666;DHT22;3875;46.562;4.898;2023-05-08T09:18:14;20.10;83.30
7666;DHT22;3875;46.562;4.898;2023-05-08T09:20:40;20.00;83.40
7666;DHT22;3875;46.562;4.898;2023-05-08T09:23:06;20.10;83.80
7666;DHT22;3875;46.562;4.898;2023-05-08T09:25:46;20.50;83.60
7666;DHT22;3875;46.562;4.898;2023-05-08T09:28:23;21.20;81.40
7666;DHT22;3875;46.562;4.898;2023-05-08T09:33:18;21.70;80.00
7666;DHT22;3875;46.562;4.898;2023-05-08T09:35:44;21.60;78.80
7666;DHT22;3875;46.562;4.898;2023-05-08T09:38:42;21.20;78.70
7666;DHT22;3875;46.562;4.898;2023-05-08T09:41:13;20.80;80.00
7666;DHT22;3875;46.562;4.898;2023-05-08T09:43:40;20.60;80.20
7666;DHT22;3875;46.562;4.898;2023-05-08T09:48:45;21.30;81.30
7666;DHT22;3875;46.562;4.898;2023-05-08T09:51:10;22.20;79.00
7666;DHT22;3875;46.562;4.898;2023-05-08T09:53:36;22.60;76.80
7666;DHT22;3875;46.562;4.898;2023-05-08T09:56:02;23.00;75.00
7666;DHT22;3875;46.562;4.898;2023-05-08T09:58:42;23.00;75.30
7666;DHT22;3875;46.562;4.898;2023-05-08T10:03:52;24.20;72.30
7666;DHT22;3875;46.562;4.898;2023-05-08T10:06:18;24.10;72.60
7666;DHT22;3875;46.562;4.898;2023-05-08T10:08:44;23.70;72.20
7666;DHT22;3875;46.562;4.898;2023-05-08T10:11:18;23.30;72.90
7666;DHT22;3875;46.562;4.898;2023-05-08T10:13:45;23.00;74.10
7666;DHT22;3875;46.562;4.898;2023-05-08T10:16:16;22.60;74.30
7666;DHT22;3875;46.562;4.898;2023-05-08T10:18:46;22.40;75.50
7666;DHT22;3875;46.562;4.898;2023-05-08T10:21:14;22.20;75.70
7666;DHT22;3875;46.562;4.898;2023-05-08T10:23:41;22.10;75.30
7666;DHT22;3875;46.562;4.898;2023-05-08T10:26:12;22.20;74.90
7666;DHT22;3875;46.562;4.898;2023-05-08T10:31:11;23.40;73.50
7666;DHT22;3875;46.562;4.898;2023-05-08T10:33:40;24.00;72.60
7666;DHT22;3875;46.562;4.898;2023-05-08T10:36:09;24.40;70.80
7666;DHT22;3875;46.562;4.898;2023-05-08T10:38:36;24.90;69.80
7666;DHT22;3875;46.562;4.898;2023-05-08T10:41:02;24.70;69.00
7666;DHT22;3875;46.562;4.898;2023-05-08T10:43:29;24.50;69.80
7666;DHT22;3875;46.562;4.898;2023-05-08T10:45:56;23.70;69.60
7666;DHT22;3875;46.562;4.898;2023-05-08T10:48:41;23.30;72.00
7666;DHT22;3875;46.562;4.898;2023-05-08T10:54:01;22.60;73.80
7666;DHT22;3875;46.562;4.898;2023-05-08T10:56:29;22.40;75.00
7666;DHT22;3875;46.562;4.898;2023-05-08T10:58:58;22.10;75.30
7666;DHT22;3875;46.562;4.898;2023-05-08T11:01:25;22.10;76.30
7666;DHT22;3875;46.562;4.898;2023-05-08T11:03:51;22.10;76.50
7666;DHT22;3875;46.562;4.898;2023-05-08T11:06:43;22.10;75.60
7666;DHT22;3875;46.562;4.898;2023-05-08T11:09:17;22.10;76.40
7666;DHT22;3875;46.562;4.898;2023-05-08T11:12:06;22.10;76.60
7666;DHT22;3875;46.562;4.898;2023-05-08T11:14:35;22.10;75.50
7666;DHT22;3875;46.562;4.898;2023-05-08T11:17:02;22.00;76.20
7666;DHT22;3875;46.562;4.898;2023-05-08T11:19:28;22.10;76.50
7666;DHT22;3875;46.562;4.898;2023-05-08T11:25:00;22.40;76.00
7666;DHT22;3875;46.562;4.898;2023-05-08T11:27:34;22.60;74.30
7666;DHT22;3875;46.562;4.898;2023-05-08T11:30:24;22.60;75.50
7666;DHT22;3875;46.562;4.898;2023-05-08T11:46:07;23.00;73.20
7666;DHT22;3875;46.562;4.898;2023-05-08T11:48:38;23.20;72.80
7666;DHT22;3875;46.562;4.898;2023-05-08T11:51:04;23.50;72.40
7666;DHT22;3875;46.562;4.898;2023-05-08T11:53:30;23.90;73.40
7666;DHT22;3875;46.562;4.898;2023-05-08T11:55:56;24.00;72.20
7666;DHT22;3875;46.562;4.898;2023-05-08T11:58:22;24.10;71.70
7666;DHT22;3875;46.562;4.898;2023-05-08T12:00:48;23.90;70.30
7666;DHT22;3875;46.562;4.898;2023-05-08T12:03:19;23.60;71.50
7666;DHT22;3875;46.562;4.898;2023-05-08T12:05:46;23.40;72.30
7666;DHT22;3875;46.562;4.898;2023-05-08T12:08:13;23.20;72.50
7666;DHT22;3875;46.562;4.898;2023-05-08T12:10:52;23.10;72.90
7666;DHT22;3875;46.562;4.898;2023-05-08T12:13:22;23.00;73.40
7666;DHT22;3875;46.562;4.898;2023-05-08T12:15:50;22.80;73.20
7666;DHT22;3875;46.562;4.898;2023-05-08T12:18:18;22.70;73.90
7666;DHT22;3875;46.562;4.898;2023-05-08T12:20:44;22.70;74.00
7666;DHT22;3875;46.562;4.898;2023-05-08T12:23:11;22.70;73.80
7666;DHT22;3875;46.562;4.898;2023-05-08T12:25:38;22.70;74.20
7666;DHT22;3875;46.562;4.898;2023-05-08T12:28:07;22.80;74.20
7666;DHT22;3875;46.562;4.898;2023-05-08T12:30:33;22.80;74.40
7666;DHT22;3875;46.562;4.898;2023-05-08T12:33:00;22.90;75.10
7666;DHT22;3875;46.562;4.898;2023-05-08T12:35:26;22.90;74.60
7666;DHT22;3875;46.562;4.898;2023-05-08T12:37:52;23.00;74.30
7666;DHT22;3875;46.562;4.898;2023-05-08T12:40:25;23.00;74.00
7666;DHT22;3875;46.562;4.898;2023-05-08T12:42:51;23.00;74.60
7666;DHT22;3875;46.562;4.898;2023-05-08T12:45:22;22.90;73.40
7666;DHT22;3875;46.562;4.898;2023-05-08T12:47:49;22.90;74.20
7666;DHT22;3875;46.562;4.898;2023-05-08T12:50:19;23.00;73.70
7666;DHT22;3875;46.562;4.898;2023-05-08T12:52:46;23.10;74.30
7666;DHT22;3875;46.562;4.898;2023-05-08T12:57:47;22.80;73.70
7666;DHT22;3875;46.562;4.898;2023-05-08T13:00:15;22.50;74.20
7666;DHT22;3875;46.562;4.898;2023-05-08T13:02:53;22.50;75.00
7666;DHT22;3875;46.562;4.898;2023-05-08T13:05:20;22.90;74.90
7666;DHT22;3875;46.562;4.898;2023-05-08T13:07:47;23.10;74.40
7666;DHT22;3875;46.562;4.898;2023-05-08T13:10:13;23.40;72.90
7666;DHT22;3875;46.562;4.898;2023-05-08T13:12:39;23.60;73.50
7666;DHT22;3875;46.562;4.898;2023-05-08T13:15:05;23.60;72.70
7666;DHT22;3875;46.562;4.898;2023-05-08T13:17:30;23.80;72.60
7666;DHT22;3875;46.562;4.898;2023-05-08T13:19:56;23.90;72.30
7666;DHT22;3875;46.562;4.898;2023-05-08T13:22:22;23.90;71.40
7666;DHT22;3875;46.562;4.898;2023-05-08T13:24:51;23.80;71.60
7666;DHT22;3875;46.562;4.898;2023-05-08T13:27:17;23.80;72.00
7666;DHT22;3875;46.562;4.898;2023-05-08T13:29:42;23.40;70.40
7666;DHT22;3875;46.562;4.898;2023-05-08T13:32:08;23.10;71.80
7666;DHT22;3875;46.562;4.898;2023-05-08T13:34:33;23.10;72.30
7666;DHT22;3875;46.562;4.898;2023-05-08T13:36:59;23.10;72.70
7666;DHT22;3875;46.562;4.898;2023-05-08T13:39:25;23.10;73.00
7666;DHT22;3875;46.562;4.898;2023-05-08T13:41:50;23.00;72.40
7666;DHT22;3875;46.562;4.898;2023-05-08T13:44:16;22.70;73.20
7666;DHT22;3875;46.562;4.898;2023-05-08T13:46:41;22.60;73.60
7666;DHT22;3875;46.562;4.898;2023-05-08T13:49:07;22.60;74.40
7666;DHT22;3875;46.562;4.898;2023-05-08T13:51:33;22.60;74.90
7666;DHT22;3875;46.562;4.898;2023-05-08T13:53:58;22.60;74.60
7666;DHT22;3875;46.562;4.898;2023-05-08T13:56:24;22.80;75.10
7666;DHT22;3875;46.562;4.898;2023-05-08T13:58:51;22.90;74.50
7666;DHT22;3875;46.562;4.898;2023-05-08T14:01:17;23.10;74.50
7666;DHT22;3875;46.562;4.898;2023-05-08T14:03:42;23.20;73.90
7666;DHT22;3875;46.562;4.898;2023-05-08T14:06:08;23.20;72.90
7666;DHT22;3875;46.562;4.898;2023-05-08T14:08:33;23.20;73.40
7666;DHT22;3875;46.562;4.898;2023-05-08T14:10:59;23.20;72.70
7666;DHT22;3875;46.562;4.898;2023-05-08T14:13:25;23.30;72.90
7666;DHT22;3875;46.562;4.898;2023-05-08T14:15:50;23.20;72.20
7666;DHT22;3875;46.562;4.898;2023-05-08T14:18:16;23.20;71.40
7666;DHT22;3875;46.562;4.898;2023-05-08T14:20:41;23.30;71.80
7666;DHT22;3875;46.562;4.898;2023-05-08T14:23:07;23.30;71.80
7666;DHT22;3875;46.562;4.898;2023-05-08T14:25:33;23.20;72.10
7666;DHT22;3875;46.562;4.898;2023-05-08T14:27:58;23.20;72.40
7666;DHT22;3875;46.562;4.898;2023-05-08T14:30:24;23.20;71.90
7666;DHT22;3875;46.562;4.898;2023-05-08T14:32:50;23.20;71.40
7666;DHT22;3875;46.562;4.898;2023-05-08T14:35:15;23.10;71.80
7666;DHT22;3875;46.562;4.898;2023-05-08T14:37:41;22.90;72.80
7666;DHT22;3875;46.562;4.898;2023-05-08T14:40:07;22.90;73.10
7666;DHT22;3875;46.562;4.898;2023-05-08T14:42:33;23.00;73.50
7666;DHT22;3875;46.562;4.898;2023-05-08T14:44:59;23.10;72.90
7666;DHT22;3875;46.562;4.898;2023-05-08T14:47:25;23.10;73.20
7666;DHT22;3875;46.562;4.898;2023-05-08T14:49:51;23.10;73.40
7666;DHT22;3875;46.562;4.898;2023-05-08T14:52:18;23.20;73.00
7666;DHT22;3875;46.562;4.898;2023-05-08T14:54:44;23.20;72.60
7666;DHT22;3875;46.562;4.898;2023-05-08T14:57:12;23.20;72.20
7666;DHT22;3875;46.562;4.898;2023-05-08T14:59:37;23.30;73.00
7666;DHT22;3875;46.562;4.898;2023-05-08T15:02:03;23.40;73.00
7666;DHT22;3875;46.562;4.898;2023-05-08T15:04:28;23.80;72.20
7666;DHT22;3875;46.562;4.898;2023-05-08T15:06:54;23.90;71.10
7666;DHT22;3875;46.562;4.898;2023-05-08T15:09:20;23.70;71.50
7666;DHT22;3875;46.562;4.898;2023-05-08T15:11:45;23.60;71.90
7666;DHT22;3875;46.562;4.898;2023-05-08T15:14:11;23.60;71.80
7666;DHT22;3875;46.562;4.898;2023-05-08T15:16:37;23.70;71.70
7666;DHT22;3875;46.562;4.898;2023-05-08T15:19:02;23.70;71.80
7666;DHT22;3875;46.562;4.898;2023-05-08T15:21:28;23.70;71.60
7666;DHT22;3875;46.562;4.898;2023-05-08T15:23:54;23.70;72.20
7666;DHT22;3875;46.562;4.898;2023-05-08T15:26:21;23.70;72.60
7666;DHT22;3875;46.562;4.898;2023-05-08T15:28:47;23.80;72.50
7666;DHT22;3875;46.562;4.898;2023-05-08T15:31:12;23.70;72.50
7666;DHT22;3875;46.562;4.898;2023-05-08T15:33:38;23.70;72.30
7666;DHT22;3875;46.562;4.898;2023-05-08T15:36:10;23.80;72.20
7666;DHT22;3875;46.562;4.898;2023-05-08T15:38:35;23.80;72.40
7666;DHT22;3875;46.562;4.898;2023-05-08T15:41:01;23.90;70.90
7666;DHT22;3875;46.562;4.898;2023-05-08T15:43:26;23.80;71.60
7666;DHT22;3875;46.562;4.898;2023-05-08T15:45:52;23.70;71.60
7666;DHT22;3875;46.562;4.898;2023-05-08T15:48:18;23.60;71.00
7666;DHT22;3875;46.562;4.898;2023-05-08T15:50:43;23.50;71.60
7666;DHT22;3875;46.562;4.898;2023-05-08T15:53:09;23.40;72.00
7666;DHT22;3875;46.562;4.898;2023-05-08T15:55:34;23.30;72.50
7666;DHT22;3875;46.562;4.898;2023-05-08T15:58:00;23.20;72.70
7666;DHT22;3875;46.562;4.898;2023-05-08T16:00:26;23.30;72.60
7666;DHT22;3875;46.562;4.898;2023-05-08T16:02:52;23.30;73.00
7666;DHT22;3875;46.562;4.898;2023-05-08T16:05:17;23.20;73.00
7666;DHT22;3875;46.562;4.898;2023-05-08T16:07:43;23.20;72.60
7666;DHT22;3875;46.562;4.898;2023-05-08T16:10:09;23.20;72.50
7666;DHT22;3875;46.562;4.898;2023-05-08T16:12:35;23.20;72.80
7666;DHT22;3875;46.562;4.898;2023-05-08T16:15:00;23.10;72.60
7666;DHT22;3875;46.562;4.898;2023-05-08T16:17:26;23.10;73.30
7666;DHT22;3875;46.562;4.898;2023-05-08T16:19:51;23.10;73.30
7666;DHT22;3875;46.562;4.898;2023-05-08T16:22:17;23.10;73.20
7666;DHT22;3875;46.562;4.898;2023-05-08T16:24:43;23.10;73.20
7666;DHT22;3875;46.562;4.898;2023-05-08T16:27:08;23.10;73.30
7666;DHT22;3875;46.562;4.898;2023-05-08T16:29:34;23.10;73.30
7666;DHT22;3875;46.562;4.898;2023-05-08T16:31:59;23.10;72.80
7666;DHT22;3875;46.562;4.898;2023-05-08T16:34:25;23.10;73.10
7666;DHT22;3875;46.562;4.898;2023-05-08T16:36:51;23.10;72.80
7666;DHT22;3875;46.562;4.898;2023-05-08T16:39:16;23.00;72.80
7666;DHT22;3875;46.562;4.898;2023-05-08T16:41:42;22.90;72.70
7666;DHT22;3875;46.562;4.898;2023-05-08T16:44:08;22.80;73.10
7666;DHT22;3875;46.562;4.898;2023-05-08T16:46:33;22.70;73.50
7666;DHT22;3875;46.562;4.898;2023-05-08T16:48:59;22.70;73.90
7666;DHT22;3875;46.562;4.898;2023-05-08T16:51:24;22.60;74.60
7666;DHT22;3875;46.562;4.898;2023-05-08T16:53:50;22.60;74.80
7666;DHT22;3875;46.562;4.898;2023-05-08T16:56:16;22.60;74.50
7666;DHT22;3875;46.562;4.898;2023-05-08T16:58:42;22.50;74.80
7666;DHT22;3875;46.562;4.898;2023-05-08T17:01:08;22.50;74.70
7666;DHT22;3875;46.562;4.898;2023-05-08T17:03:35;22.60;74.90
7666;DHT22;3875;46.562;4.898;2023-05-08T17:06:05;22.60;74.90
7666;DHT22;3875;46.562;4.898;2023-05-08T17:08:31;22.60;74.60